KDTW/DTW METAR and TAF weather

Enter ICAO airport designator
Station Type Date Time Source
KDTW METAR 2019/10/21 21:53 UTC NOAA

KDTW 212153Z 14015G23KT 10SM BKN040 OVC070 17/12 A2969 RMK AO2 RAE03 SLP055 P0001 T01670117 $


Station Type Date Time Source
KDTW Decoded METAR 2019/10/21 21:53 UTC NOAA

DETROIT METROPOLITAN, MI, United States (KDTW) 42-14N 83-20W 195M
Oct 21, 2019 - 05:53 PM EDT / 2019.10.21 2153 UTC
Wind: from the SE (140 degrees) at 17 MPH (15 KT) gusting to 26 MPH (23 KT):0
Visibility: 10 mile(s):0
Sky conditions: overcast
Precipitation last hour: 0.01 inches
Temperature: 62.1 F (16.7 C)
Dew Point: 53.1 F (11.7 C)
Relative Humidity: 72%
Pressure (altimeter): 29.69 in. Hg (1005 hPa)
ob: KDTW 212153Z 14015G23KT 10SM BKN040 OVC070 17/12 A2969 RMK AO2 RAE03 SLP055 P0001 T01670117
cycle: 22

Station Type Date Time Source
KDTW TAF 2019/10/21 21:58 UTC NOAA

TAF
AMD KDTW 212058Z 2121/2224 13014G25KT P6SM SCT025 OVC060
TEMPO 2121/2124 4SM -SHRA SCT025 OVC045
FM220000 14012G22KT P6SM SCT014 OVC060
TEMPO 2200/2202 4SM -SHRA BR SCT008 OVC014
FM220200 18011G19KT P6SM -SHRA BKN018 OVC035 WS020/22045KT
FM220700 22012G22KT P6SM SCT040 BKN200
FM221500 21015G25KT P6SM SCT030 BKN050
FM221800 21018G31KT P6SM OVC040

Example: see airport list